sensor_id;sensor_type;location;lat;lon;timestamp;P1;durP1;ratioP1;P2;durP2;ratioP2
14306;SDS011;7237;49.500;11.400;2023-05-29T00:01:14;3.07;;;2.47;;
14306;SDS011;7237;49.500;11.400;2023-05-29T00:03:43;4.07;;;2.73;;
14306;SDS011;7237;49.500;11.400;2023-05-29T00:06:10;4.17;;;2.40;;
14306;SDS011;7237;49.500;11.400;2023-05-29T00:08:38;5.33;;;2.53;;
14306;SDS011;7237;49.500;11.400;2023-05-29T00:11:05;4.50;;;2.80;;
14306;SDS011;7237;49.500;11.400;2023-05-29T00:13:32;3.73;;;3.00;;
14306;SDS011;7237;49.500;11.400;2023-05-29T00:15:59;3.47;;;2.57;;
14306;SDS011;7237;49.500;11.400;2023-05-29T00:18:29;6.27;;;2.60;;
14306;SDS011;7237;49.500;11.400;2023-05-29T00:20:56;4.33;;;2.53;;
14306;SDS011;7237;49.500;11.400;2023-05-29T00:23:24;10.63;;;3.00;;
14306;SDS011;7237;49.500;11.400;2023-05-29T00:25:51;5.43;;;2.70;;
14306;SDS011;7237;49.500;11.400;2023-05-29T00:28:18;6.73;;;2.80;;
14306;SDS011;7237;49.500;11.400;2023-05-29T00:30:45;4.87;;;2.93;;
14306;SDS011;7237;49.500;11.400;2023-05-29T00:33:13;7.40;;;2.77;;
14306;SDS011;7237;49.500;11.400;2023-05-29T00:35:41;8.43;;;3.23;;
14306;SDS011;7237;49.500;11.400;2023-05-29T00:38:08;5.23;;;3.20;;
14306;SDS011;7237;49.500;11.400;2023-05-29T00:40:35;5.47;;;2.70;;
14306;SDS011;7237;49.500;11.400;2023-05-29T00:43:02;5.30;;;3.30;;
14306;SDS011;7237;49.500;11.400;2023-05-29T00:45:29;3.87;;;2.60;;
14306;SDS011;7237;49.500;11.400;2023-05-29T00:48:01;4.40;;;2.70;;
14306;SDS011;7237;49.500;11.400;2023-05-29T00:50:28;4.67;;;2.63;;
14306;SDS011;7237;49.500;11.400;2023-05-29T00:52:57;7.63;;;3.10;;
14306;SDS011;7237;49.500;11.400;2023-05-29T00:55:24;4.23;;;2.87;;
14306;SDS011;7237;49.500;11.400;2023-05-29T00:57:51;4.50;;;2.77;;
14306;SDS011;7237;49.500;11.400;2023-05-29T01:00:18;5.50;;;3.30;;
14306;SDS011;7237;49.500;11.400;2023-05-29T01:02:46;7.03;;;2.87;;
14306;SDS011;7237;49.500;11.400;2023-05-29T01:05:13;4.20;;;2.60;;
14306;SDS011;7237;49.500;11.400;2023-05-29T01:07:40;3.77;;;2.93;;
14306;SDS011;7237;49.500;11.400;2023-05-29T01:10:09;4.87;;;3.00;;
14306;SDS011;7237;49.500;11.400;2023-05-29T01:12:38;4.33;;;2.90;;
14306;SDS011;7237;49.500;11.400;2023-05-29T01:15:15;3.80;;;2.70;;
14306;SDS011;7237;49.500;11.400;2023-05-29T01:17:47;4.73;;;3.27;;
14306;SDS011;7237;49.500;11.400;2023-05-29T01:20:22;3.80;;;2.87;;
14306;SDS011;7237;49.500;11.400;2023-05-29T01:25:44;4.13;;;3.13;;
14306;SDS011;7237;49.500;11.400;2023-05-29T01:28:15;4.13;;;2.90;;
14306;SDS011;7237;49.500;11.400;2023-05-29T01:30:46;4.50;;;3.00;;
14306;SDS011;7237;49.500;11.400;2023-05-29T01:33:13;6.03;;;2.97;;
14306;SDS011;7237;49.500;11.400;2023-05-29T01:35:41;3.50;;;2.80;;
14306;SDS011;7237;49.500;11.400;2023-05-29T01:38:08;6.33;;;2.90;;
14306;SDS011;7237;49.500;11.400;2023-05-29T01:40:35;3.80;;;2.60;;
14306;SDS011;7237;49.500;11.400;2023-05-29T01:43:02;6.30;;;2.77;;
14306;SDS011;7237;49.500;11.400;2023-05-29T01:45:31;7.67;;;2.90;;
14306;SDS011;7237;49.500;11.400;2023-05-29T01:47:58;6.10;;;2.80;;
14306;SDS011;7237;49.500;11.400;2023-05-29T01:50:25;4.33;;;2.70;;
14306;SDS011;7237;49.500;11.400;2023-05-29T01:52:52;5.33;;;3.07;;
14306;SDS011;7237;49.500;11.400;2023-05-29T01:55:20;7.20;;;2.97;;
14306;SDS011;7237;49.500;11.400;2023-05-29T01:57:47;4.67;;;3.57;;
14306;SDS011;7237;49.500;11.400;2023-05-29T02:00:15;4.50;;;3.17;;
14306;SDS011;7237;49.500;11.400;2023-05-29T02:02:45;5.83;;;3.10;;
14306;SDS011;7237;49.500;11.400;2023-05-29T02:05:12;5.23;;;2.80;;
14306;SDS011;7237;49.500;11.400;2023-05-29T02:07:39;5.13;;;3.07;;
14306;SDS011;7237;49.500;11.400;2023-05-29T02:10:07;3.10;;;2.80;;
14306;SDS011;7237;49.500;11.400;2023-05-29T02:12:34;4.37;;;3.00;;
14306;SDS011;7237;49.500;11.400;2023-05-29T02:15:01;2.90;;;2.60;;
14306;SDS011;7237;49.500;11.400;2023-05-29T02:17:28;8.07;;;3.00;;
14306;SDS011;7237;49.500;11.400;2023-05-29T02:19:57;4.40;;;3.20;;
14306;SDS011;7237;49.500;11.400;2023-05-29T02:22:24;4.30;;;2.83;;
14306;SDS011;7237;49.500;11.400;2023-05-29T02:24:51;3.67;;;2.47;;
14306;SDS011;7237;49.500;11.400;2023-05-29T02:27:18;9.00;;;3.03;;
14306;SDS011;7237;49.500;11.400;2023-05-29T02:29:45;3.83;;;2.93;;
14306;SDS011;7237;49.500;11.400;2023-05-29T02:32:13;6.60;;;2.97;;
14306;SDS011;7237;49.500;11.400;2023-05-29T02:34:40;4.80;;;3.07;;
14306;SDS011;7237;49.500;11.400;2023-05-29T02:37:08;9.83;;;2.83;;
14306;SDS011;7237;49.500;11.400;2023-05-29T02:39:35;3.90;;;2.70;;
14306;SDS011;7237;49.500;11.400;2023-05-29T02:42:02;7.93;;;3.10;;
14306;SDS011;7237;49.500;11.400;2023-05-29T02:44:30;4.47;;;2.90;;
14306;SDS011;7237;49.500;11.400;2023-05-29T02:46:57;3.53;;;2.70;;
14306;SDS011;7237;49.500;11.400;2023-05-29T02:49:25;5.43;;;3.00;;
14306;SDS011;7237;49.500;11.400;2023-05-29T02:51:52;5.07;;;3.20;;
14306;SDS011;7237;49.500;11.400;2023-05-29T02:54:22;4.43;;;3.00;;
14306;SDS011;7237;49.500;11.400;2023-05-29T02:56:50;6.77;;;2.83;;
14306;SDS011;7237;49.500;11.400;2023-05-29T02:59:17;3.97;;;2.40;;
14306;SDS011;7237;49.500;11.400;2023-05-29T03:01:44;3.87;;;2.93;;
14306;SDS011;7237;49.500;11.400;2023-05-29T03:04:12;6.60;;;2.90;;
14306;SDS011;7237;49.500;11.400;2023-05-29T03:06:39;3.93;;;2.73;;
14306;SDS011;7237;49.500;11.400;2023-05-29T03:09:07;3.70;;;3.20;;
14306;SDS011;7237;49.500;11.400;2023-05-29T03:11:35;4.53;;;3.07;;
14306;SDS011;7237;49.500;11.400;2023-05-29T03:14:03;5.63;;;2.77;;
14306;SDS011;7237;49.500;11.400;2023-05-29T03:16:30;3.63;;;2.90;;
14306;SDS011;7237;49.500;11.400;2023-05-29T03:18:57;4.33;;;2.80;;
14306;SDS011;7237;49.500;11.400;2023-05-29T03:21:24;6.57;;;3.00;;
14306;SDS011;7237;49.500;11.400;2023-05-29T03:23:51;5.37;;;3.07;;
14306;SDS011;7237;49.500;11.400;2023-05-29T03:26:18;4.23;;;2.70;;
14306;SDS011;7237;49.500;11.400;2023-05-29T03:28:47;4.47;;;2.73;;
14306;SDS011;7237;49.500;11.400;2023-05-29T03:31:14;6.90;;;2.87;;
14306;SDS011;7237;49.500;11.400;2023-05-29T03:33:42;3.60;;;3.00;;
14306;SDS011;7237;49.500;11.400;2023-05-29T03:36:10;4.30;;;3.07;;
14306;SDS011;7237;49.500;11.400;2023-05-29T03:38:37;3.40;;;3.10;;
14306;SDS011;7237;49.500;11.400;2023-05-29T03:41:04;6.60;;;3.23;;
14306;SDS011;7237;49.500;11.400;2023-05-29T03:43:31;4.27;;;2.97;;
14306;SDS011;7237;49.500;11.400;2023-05-29T03:46:00;5.40;;;3.00;;
14306;SDS011;7237;49.500;11.400;2023-05-29T03:48:27;4.93;;;3.17;;
14306;SDS011;7237;49.500;11.400;2023-05-29T03:50:54;4.63;;;2.90;;
14306;SDS011;7237;49.500;11.400;2023-05-29T03:53:21;5.23;;;2.83;;
14306;SDS011;7237;49.500;11.400;2023-05-29T03:55:48;4.83;;;2.70;;
14306;SDS011;7237;49.500;11.400;2023-05-29T03:58:15;3.30;;;2.63;;
14306;SDS011;7237;49.500;11.400;2023-05-29T04:00:42;6.00;;;2.80;;
14306;SDS011;7237;49.500;11.400;2023-05-29T04:03:10;3.27;;;2.60;;
14306;SDS011;7237;49.500;11.400;2023-05-29T04:05:37;3.57;;;2.77;;
14306;SDS011;7237;49.500;11.400;2023-05-29T04:08:04;3.97;;;2.90;;
14306;SDS011;7237;49.500;11.400;2023-05-29T04:10:33;3.03;;;2.70;;
14306;SDS011;7237;49.500;11.400;2023-05-29T04:13:01;4.20;;;2.50;;
14306;SDS011;7237;49.500;11.400;2023-05-29T04:15:29;5.43;;;2.73;;
14306;SDS011;7237;49.500;11.400;2023-05-29T04:17:58;3.70;;;2.90;;
14306;SDS011;7237;49.500;11.400;2023-05-29T04:20:26;4.20;;;2.40;;
14306;SDS011;7237;49.500;11.400;2023-05-29T04:22:53;3.07;;;2.70;;
14306;SDS011;7237;49.500;11.400;2023-05-29T04:25:20;3.97;;;2.90;;
14306;SDS011;7237;49.500;11.400;2023-05-29T04:27:47;3.90;;;3.00;;
14306;SDS011;7237;49.500;11.400;2023-05-29T04:30:15;4.27;;;2.90;;
14306;SDS011;7237;49.500;11.400;2023-05-29T04:32:42;5.30;;;2.93;;
14306;SDS011;7237;49.500;11.400;2023-05-29T04:35:09;3.60;;;2.93;;
14306;SDS011;7237;49.500;11.400;2023-05-29T04:37:38;3.47;;;2.83;;
14306;SDS011;7237;49.500;11.400;2023-05-29T04:40:05;3.37;;;2.77;;
14306;SDS011;7237;49.500;11.400;2023-05-29T04:42:34;4.73;;;3.27;;
14306;SDS011;7237;49.500;11.400;2023-05-29T04:45:01;3.37;;;2.60;;
14306;SDS011;7237;49.500;11.400;2023-05-29T04:47:28;6.67;;;2.90;;
14306;SDS011;7237;49.500;11.400;2023-05-29T04:49:58;3.33;;;2.43;;
14306;SDS011;7237;49.500;11.400;2023-05-29T04:52:25;4.73;;;2.43;;
14306;SDS011;7237;49.500;11.400;2023-05-29T04:54:53;3.33;;;2.63;;
14306;SDS011;7237;49.500;11.400;2023-05-29T04:57:21;2.57;;;2.37;;
14306;SDS011;7237;49.500;11.400;2023-05-29T04:59:48;3.65;;;2.47;;
14306;SDS011;7237;49.500;11.400;2023-05-29T05:02:15;4.70;;;2.78;;
14306;SDS011;7237;49.500;11.400;2023-05-29T05:04:42;4.25;;;2.95;;
14306;SDS011;7237;49.500;11.400;2023-05-29T05:07:10;3.97;;;2.70;;
14306;SDS011;7237;49.500;11.400;2023-05-29T05:09:38;3.30;;;3.00;;
14306;SDS011;7237;49.500;11.400;2023-05-29T05:12:06;3.25;;;2.72;;
14306;SDS011;7237;49.500;11.400;2023-05-29T05:14:33;4.00;;;2.67;;
14306;SDS011;7237;49.500;11.400;2023-05-29T05:17:01;4.60;;;3.00;;
14306;SDS011;7237;49.500;11.400;2023-05-29T05:19:28;4.85;;;2.83;;
14306;SDS011;7237;49.500;11.400;2023-05-29T05:21:55;4.32;;;2.85;;
14306;SDS011;7237;49.500;11.400;2023-05-29T05:24:22;3.65;;;2.67;;
14306;SDS011;7237;49.500;11.400;2023-05-29T05:26:49;4.18;;;2.50;;
14306;SDS011;7237;49.500;11.400;2023-05-29T05:29:18;4.25;;;2.80;;
14306;SDS011;7237;49.500;11.400;2023-05-29T05:31:45;3.88;;;2.90;;
14306;SDS011;7237;49.500;11.400;2023-05-29T05:34:12;5.72;;;3.22;;
14306;SDS011;7237;49.500;11.400;2023-05-29T05:36:39;4.85;;;3.00;;
14306;SDS011;7237;49.500;11.400;2023-05-29T05:39:06;3.33;;;2.70;;
14306;SDS011;7237;49.500;11.400;2023-05-29T05:41:33;3.70;;;2.80;;
14306;SDS011;7237;49.500;11.400;2023-05-29T05:44:00;4.50;;;2.70;;
14306;SDS011;7237;49.500;11.400;2023-05-29T05:46:28;3.35;;;2.30;;
14306;SDS011;7237;49.500;11.400;2023-05-29T05:48:55;3.50;;;2.60;;
14306;SDS011;7237;49.500;11.400;2023-05-29T05:51:22;4.18;;;3.13;;
14306;SDS011;7237;49.500;11.400;2023-05-29T05:53:49;3.25;;;2.60;;
14306;SDS011;7237;49.500;11.400;2023-05-29T05:56:16;4.88;;;2.80;;
14306;SDS011;7237;49.500;11.400;2023-05-29T05:58:43;4.13;;;2.60;;
14306;SDS011;7237;49.500;11.400;2023-05-29T06:01:11;3.55;;;2.88;;
14306;SDS011;7237;49.500;11.400;2023-05-29T06:03:39;3.53;;;3.15;;
14306;SDS011;7237;49.500;11.400;2023-05-29T06:06:06;3.20;;;2.67;;
14306;SDS011;7237;49.500;11.400;2023-05-29T06:08:34;4.32;;;2.63;;
14306;SDS011;7237;49.500;11.400;2023-05-29T06:11:01;2.92;;;2.60;;
14306;SDS011;7237;49.500;11.400;2023-05-29T06:13:28;4.25;;;2.72;;
14306;SDS011;7237;49.500;11.400;2023-05-29T06:15:55;5.47;;;2.92;;
14306;SDS011;7237;49.500;11.400;2023-05-29T06:18:22;5.18;;;2.70;;
14306;SDS011;7237;49.500;11.400;2023-05-29T06:20:50;3.55;;;3.05;;
14306;SDS011;7237;49.500;11.400;2023-05-29T06:23:17;3.67;;;2.47;;
14306;SDS011;7237;49.500;11.400;2023-05-29T06:25:44;3.30;;;2.65;;
14306;SDS011;7237;49.500;11.400;2023-05-29T06:28:11;5.15;;;3.00;;
14306;SDS011;7237;49.500;11.400;2023-05-29T06:30:39;5.18;;;3.10;;
14306;SDS011;7237;49.500;11.400;2023-05-29T06:33:06;3.40;;;2.63;;
14306;SDS011;7237;49.500;11.400;2023-05-29T06:35:33;4.03;;;2.80;;
14306;SDS011;7237;49.500;11.400;2023-05-29T06:38:01;3.03;;;2.70;;
14306;SDS011;7237;49.500;11.400;2023-05-29T06:40:28;5.30;;;2.90;;
14306;SDS011;7237;49.500;11.400;2023-05-29T06:42:55;6.03;;;3.17;;
14306;SDS011;7237;49.500;11.400;2023-05-29T06:45:22;3.83;;;2.75;;
14306;SDS011;7237;49.500;11.400;2023-05-29T06:47:49;5.78;;;2.80;;
14306;SDS011;7237;49.500;11.400;2023-05-29T06:50:17;4.50;;;2.53;;
14306;SDS011;7237;49.500;11.400;2023-05-29T06:52:44;2.72;;;2.22;;
14306;SDS011;7237;49.500;11.400;2023-05-29T06:55:12;5.38;;;2.70;;
14306;SDS011;7237;49.500;11.400;2023-05-29T06:57:39;4.50;;;2.50;;
14306;SDS011;7237;49.500;11.400;2023-05-29T07:00:06;2.92;;;2.60;;
14306;SDS011;7237;49.500;11.400;2023-05-29T07:02:35;3.65;;;2.63;;
14306;SDS011;7237;49.500;11.400;2023-05-29T07:05:03;2.78;;;2.50;;
14306;SDS011;7237;49.500;11.400;2023-05-29T07:07:30;4.50;;;2.45;;
14306;SDS011;7237;49.500;11.400;2023-05-29T07:09:57;2.80;;;2.47;;
14306;SDS011;7237;49.500;11.400;2023-05-29T07:12:26;2.92;;;2.50;;
14306;SDS011;7237;49.500;11.400;2023-05-29T07:14:53;2.95;;;2.35;;
14306;SDS011;7237;49.500;11.400;2023-05-29T07:17:20;3.05;;;2.58;;
14306;SDS011;7237;49.500;11.400;2023-05-29T07:19:47;4.60;;;2.35;;
14306;SDS011;7237;49.500;11.400;2023-05-29T07:22:14;3.80;;;2.42;;
14306;SDS011;7237;49.500;11.400;2023-05-29T07:24:41;4.10;;;2.38;;
14306;SDS011;7237;49.500;11.400;2023-05-29T07:27:08;4.32;;;2.40;;
14306;SDS011;7237;49.500;11.400;2023-05-29T07:29:37;4.38;;;2.88;;
14306;SDS011;7237;49.500;11.400;2023-05-29T07:32:04;2.88;;;2.60;;
14306;SDS011;7237;49.500;11.400;2023-05-29T07:34:31;4.82;;;2.70;;
14306;SDS011;7237;49.500;11.400;2023-05-29T07:36:59;4.05;;;2.60;;
14306;SDS011;7237;49.500;11.400;2023-05-29T07:39:27;6.10;;;2.78;;
14306;SDS011;7237;49.500;11.400;2023-05-29T07:41:54;4.15;;;2.45;;
14306;SDS011;7237;49.500;11.400;2023-05-29T07:44:21;4.32;;;2.55;;
14306;SDS011;7237;49.500;11.400;2023-05-29T07:46:50;4.72;;;2.30;;
14306;SDS011;7237;49.500;11.400;2023-05-29T07:49:17;4.20;;;2.70;;
14306;SDS011;7237;49.500;11.400;2023-05-29T07:51:44;3.60;;;2.63;;
14306;SDS011;7237;49.500;11.400;2023-05-29T07:54:11;3.60;;;2.35;;
14306;SDS011;7237;49.500;11.400;2023-05-29T07:56:38;4.40;;;2.85;;
14306;SDS011;7237;49.500;11.400;2023-05-29T07:59:05;5.10;;;2.65;;
14306;SDS011;7237;49.500;11.400;2023-05-29T08:01:33;2.83;;;2.35;;
14306;SDS011;7237;49.500;11.400;2023-05-29T08:04:02;6.38;;;2.33;;
14306;SDS011;7237;49.500;11.400;2023-05-29T08:06:29;3.05;;;2.22;;
14306;SDS011;7237;49.500;11.400;2023-05-29T08:08:57;2.45;;;2.00;;
14306;SDS011;7237;49.500;11.400;2023-05-29T08:11:24;5.22;;;2.60;;
14306;SDS011;7237;49.500;11.400;2023-05-29T08:13:51;5.63;;;2.50;;
14306;SDS011;7237;49.500;11.400;2023-05-29T08:16:18;3.78;;;2.28;;
14306;SDS011;7237;49.500;11.400;2023-05-29T08:18:47;2.38;;;2.17;;
14306;SDS011;7237;49.500;11.400;2023-05-29T08:21:15;3.30;;;2.30;;
14306;SDS011;7237;49.500;11.400;2023-05-29T08:23:42;6.15;;;2.60;;
14306;SDS011;7237;49.500;11.400;2023-05-29T08:26:09;3.50;;;2.00;;
14306;SDS011;7237;49.500;11.400;2023-05-29T08:28:37;4.82;;;2.10;;
14306;SDS011;7237;49.500;11.400;2023-05-29T08:31:04;3.03;;;2.20;;
14306;SDS011;7237;49.500;11.400;2023-05-29T08:33:31;4.28;;;2.33;;
14306;SDS011;7237;49.500;11.400;2023-05-29T08:35:58;9.70;;;2.42;;
14306;SDS011;7237;49.500;11.400;2023-05-29T08:38:27;3.05;;;2.10;;
14306;SDS011;7237;49.500;11.400;2023-05-29T08:40:54;3.70;;;2.33;;
14306;SDS011;7237;49.500;11.400;2023-05-29T08:43:22;2.53;;;2.05;;
14306;SDS011;7237;49.500;11.400;2023-05-29T08:45:52;3.25;;;2.40;;
14306;SDS011;7237;49.500;11.400;2023-05-29T08:48:20;2.85;;;2.00;;
14306;SDS011;7237;49.500;11.400;2023-05-29T08:50:49;7.45;;;2.60;;
14306;SDS011;7237;49.500;11.400;2023-05-29T08:53:17;7.43;;;2.15;;
14306;SDS011;7237;49.500;11.400;2023-05-29T08:55:46;3.00;;;2.42;;
14306;SDS011;7237;49.500;11.400;2023-05-29T08:58:16;3.67;;;2.03;;
14306;SDS011;7237;49.500;11.400;2023-05-29T09:00:43;3.17;;;2.10;;
14306;SDS011;7237;49.500;11.400;2023-05-29T09:03:10;3.17;;;1.95;;
14306;SDS011;7237;49.500;11.400;2023-05-29T09:05:38;3.25;;;2.17;;
14306;SDS011;7237;49.500;11.400;2023-05-29T09:08:06;2.10;;;1.90;;
14306;SDS011;7237;49.500;11.400;2023-05-29T09:10:33;2.63;;;2.10;;
14306;SDS011;7237;49.500;11.400;2023-05-29T09:13:02;2.20;;;2.00;;
14306;SDS011;7237;49.500;11.400;2023-05-29T09:15:29;5.00;;;1.90;;
14306;SDS011;7237;49.500;11.400;2023-05-29T09:17:57;2.90;;;1.88;;
14306;SDS011;7237;49.500;11.400;2023-05-29T09:20:25;3.38;;;1.95;;
14306;SDS011;7237;49.500;11.400;2023-05-29T09:22:53;4.80;;;2.03;;
14306;SDS011;7237;49.500;11.400;2023-05-29T09:25:20;3.72;;;2.17;;
14306;SDS011;7237;49.500;11.400;2023-05-29T09:27:48;3.42;;;2.25;;
14306;SDS011;7237;49.500;11.400;2023-05-29T09:30:17;4.28;;;2.15;;
14306;SDS011;7237;49.500;11.400;2023-05-29T09:32:58;3.42;;;2.10;;
14306;SDS011;7237;49.500;11.400;2023-05-29T09:35:25;5.35;;;2.33;;
14306;SDS011;7237;49.500;11.400;2023-05-29T09:37:52;4.45;;;2.00;;
14306;SDS011;7237;49.500;11.400;2023-05-29T09:40:21;3.03;;;2.28;;
14306;SDS011;7237;49.500;11.400;2023-05-29T09:42:48;2.50;;;2.15;;
14306;SDS011;7237;49.500;11.400;2023-05-29T09:45:17;2.78;;;1.90;;
14306;SDS011;7237;49.500;11.400;2023-05-29T09:47:45;3.13;;;2.03;;
14306;SDS011;7237;49.500;11.400;2023-05-29T09:50:17;3.05;;;2.38;;
14306;SDS011;7237;49.500;11.400;2023-05-29T09:52:46;3.97;;;2.42;;
14306;SDS011;7237;49.500;11.400;2023-05-29T09:55:17;2.78;;;2.08;;
14306;SDS011;7237;49.500;11.400;2023-05-29T09:57:45;3.65;;;2.08;;
14306;SDS011;7237;49.500;11.400;2023-05-29T10:00:13;3.55;;;2.30;;
14306;SDS011;7237;49.500;11.400;2023-05-29T10:02:42;4.25;;;2.45;;
14306;SDS011;7237;49.500;11.400;2023-05-29T10:05:10;4.20;;;2.13;;
14306;SDS011;7237;49.500;11.400;2023-05-29T10:07:40;3.88;;;1.90;;
14306;SDS011;7237;49.500;11.400;2023-05-29T10:10:11;4.63;;;1.90;;
14306;SDS011;7237;49.500;11.400;2023-05-29T10:12:39;4.07;;;2.20;;
14306;SDS011;7237;49.500;11.400;2023-05-29T10:15:10;5.05;;;2.35;;
14306;SDS011;7237;49.500;11.400;2023-05-29T10:17:38;3.53;;;2.22;;
14306;SDS011;7237;49.500;11.400;2023-05-29T10:20:08;2.25;;;2.05;;
14306;SDS011;7237;49.500;11.400;2023-05-29T10:22:36;7.35;;;2.00;;
14306;SDS011;7237;49.500;11.400;2023-05-29T10:25:06;2.70;;;2.20;;
14306;SDS011;7237;49.500;11.400;2023-05-29T10:27:34;4.00;;;2.08;;
14306;SDS011;7237;49.500;11.400;2023-05-29T10:30:04;2.83;;;1.90;;
14306;SDS011;7237;49.500;11.400;2023-05-29T10:32:36;3.13;;;2.00;;
14306;SDS011;7237;49.500;11.400;2023-05-29T10:35:06;2.00;;;1.90;;
14306;SDS011;7237;49.500;11.400;2023-05-29T10:37:37;2.40;;;2.10;;
14306;SDS011;7237;49.500;11.400;2023-05-29T10:40:07;3.92;;;1.83;;
14306;SDS011;7237;49.500;11.400;2023-05-29T10:42:41;5.57;;;1.92;;
14306;SDS011;7237;49.500;11.400;2023-05-29T10:45:09;4.97;;;2.38;;
14306;SDS011;7237;49.500;11.400;2023-05-29T10:47:36;2.65;;;1.98;;
14306;SDS011;7237;49.500;11.400;2023-05-29T10:50:04;2.58;;;2.25;;
14306;SDS011;7237;49.500;11.400;2023-05-29T10:52:31;2.20;;;2.00;;
14306;SDS011;7237;49.500;11.400;2023-05-29T10:55:00;2.95;;;2.20;;
14306;SDS011;7237;49.500;11.400;2023-05-29T10:57:29;8.68;;;1.90;;
14306;SDS011;7237;49.500;11.400;2023-05-29T11:00:04;3.17;;;2.15;;
14306;SDS011;7237;49.500;11.400;2023-05-29T11:02:37;2.17;;;1.98;;
14306;SDS011;7237;49.500;11.400;2023-05-29T11:07:50;3.25;;;2.15;;
14306;SDS011;7237;49.500;11.400;2023-05-29T11:10:21;4.85;;;2.03;;
14306;SDS011;7237;49.500;11.400;2023-05-29T11:13:07;5.78;;;2.00;;
14306;SDS011;7237;49.500;11.400;2023-05-29T11:15:34;3.47;;;2.10;;
14306;SDS011;7237;49.500;11.400;2023-05-29T11:18:05;3.65;;;2.13;;
14306;SDS011;7237;49.500;11.400;2023-05-29T11:20:36;2.53;;;2.20;;
14306;SDS011;7237;49.500;11.400;2023-05-29T11:23:04;2.85;;;2.20;;
14306;SDS011;7237;49.500;11.400;2023-05-29T11:25:35;2.17;;;1.90;;
14306;SDS011;7237;49.500;11.400;2023-05-29T11:28:03;21.65;;;2.85;;
14306;SDS011;7237;49.500;11.400;2023-05-29T11:30:40;3.00;;;2.40;;
14306;SDS011;7237;49.500;11.400;2023-05-29T11:33:07;2.70;;;1.88;;
14306;SDS011;7237;49.500;11.400;2023-05-29T11:35:35;5.35;;;2.00;;
14306;SDS011;7237;49.500;11.400;2023-05-29T11:38:05;3.00;;;2.20;;
14306;SDS011;7237;49.500;11.400;2023-05-29T11:40:36;4.47;;;2.40;;
14306;SDS011;7237;49.500;11.400;2023-05-29T11:43:03;2.88;;;2.00;;
14306;SDS011;7237;49.500;11.400;2023-05-29T11:45:32;3.00;;;2.40;;
14306;SDS011;7237;49.500;11.400;2023-05-29T11:48:00;3.22;;;2.00;;
14306;SDS011;7237;49.500;11.400;2023-05-29T11:50:28;2.17;;;1.85;;
14306;SDS011;7237;49.500;11.400;2023-05-29T11:52:57;2.22;;;1.73;;
14306;SDS011;7237;49.500;11.400;2023-05-29T11:55:25;2.50;;;2.00;;
14306;SDS011;7237;49.500;11.400;2023-05-29T11:57:56;4.15;;;1.83;;
14306;SDS011;7237;49.500;11.400;2023-05-29T12:00:24;2.30;;;2.10;;
14306;SDS011;7237;49.500;11.400;2023-05-29T12:02:51;2.38;;;1.98;;
14306;SDS011;7237;49.500;11.400;2023-05-29T12:05:18;2.60;;;2.03;;
14306;SDS011;7237;49.500;11.400;2023-05-29T12:07:46;6.13;;;1.77;;
14306;SDS011;7237;49.500;11.400;2023-05-29T12:10:14;2.60;;;2.22;;
14306;SDS011;7237;49.500;11.400;2023-05-29T12:12:42;4.07;;;1.73;;
14306;SDS011;7237;49.500;11.400;2023-05-29T12:15:10;4.53;;;2.25;;
14306;SDS011;7237;49.500;11.400;2023-05-29T12:17:38;4.63;;;2.00;;
14306;SDS011;7237;49.500;11.400;2023-05-29T12:20:07;5.15;;;2.20;;
14306;SDS011;7237;49.500;11.400;2023-05-29T12:22:35;4.97;;;2.33;;
14306;SDS011;7237;49.500;11.400;2023-05-29T12:25:04;5.93;;;2.40;;
14306;SDS011;7237;49.500;11.400;2023-05-29T12:27:31;2.65;;;1.95;;
14306;SDS011;7237;49.500;11.400;2023-05-29T12:30:02;2.28;;;1.95;;
14306;SDS011;7237;49.500;11.400;2023-05-29T12:32:35;2.05;;;1.85;;
14306;SDS011;7237;49.500;11.400;2023-05-29T12:35:09;3.05;;;1.90;;
14306;SDS011;7237;49.500;11.400;2023-05-29T12:37:41;4.13;;;1.80;;
14306;SDS011;7237;49.500;11.400;2023-05-29T12:40:13;2.45;;;2.20;;
14306;SDS011;7237;49.500;11.400;2023-05-29T12:42:41;3.25;;;2.00;;
14306;SDS011;7237;49.500;11.400;2023-05-29T12:45:08;1.88;;;1.65;;
14306;SDS011;7237;49.500;11.400;2023-05-29T12:47:37;2.28;;;1.83;;
14306;SDS011;7237;49.500;11.400;2023-05-29T12:50:04;2.50;;;1.80;;
14306;SDS011;7237;49.500;11.400;2023-05-29T12:52:31;3.55;;;2.13;;
14306;SDS011;7237;49.500;11.400;2023-05-29T12:54:58;2.47;;;2.10;;
14306;SDS011;7237;49.500;11.400;2023-05-29T12:57:25;5.18;;;2.50;;
14306;SDS011;7237;49.500;11.400;2023-05-29T12:59:52;2.15;;;1.95;;
14306;SDS011;7237;49.500;11.400;2023-05-29T13:02:20;4.93;;;2.25;;
14306;SDS011;7237;49.500;11.400;2023-05-29T13:04:50;5.32;;;2.00;;
14306;SDS011;7237;49.500;11.400;2023-05-29T13:07:17;5.22;;;2.10;;
14306;SDS011;7237;49.500;11.400;2023-05-29T13:09:44;2.58;;;2.25;;
14306;SDS011;7237;49.500;11.400;2023-05-29T13:12:12;2.70;;;2.08;;
14306;SDS011;7237;49.500;11.400;2023-05-29T13:14:39;3.08;;;2.47;;
14306;SDS011;7237;49.500;11.400;2023-05-29T13:17:06;4.65;;;2.10;;
14306;SDS011;7237;49.500;11.400;2023-05-29T13:19:33;2.20;;;2.00;;
14306;SDS011;7237;49.500;11.400;2023-05-29T13:22:01;3.65;;;1.90;;
14306;SDS011;7237;49.500;11.400;2023-05-29T13:24:28;3.13;;;1.90;;
14306;SDS011;7237;49.500;11.400;2023-05-29T13:26:55;2.20;;;2.00;;
14306;SDS011;7237;49.500;11.400;2023-05-29T13:29:22;2.22;;;1.95;;
14306;SDS011;7237;49.500;11.400;2023-05-29T13:31:49;2.90;;;2.10;;
14306;SDS011;7237;49.500;11.400;2023-05-29T13:34:16;2.35;;;1.95;;
14306;SDS011;7237;49.500;11.400;2023-05-29T13:36:44;5.78;;;2.17;;
14306;SDS011;7237;49.500;11.400;2023-05-29T13:39:12;1.95;;;1.85;;
14306;SDS011;7237;49.500;11.400;2023-05-29T13:41:39;2.83;;;2.20;;
14306;SDS011;7237;49.500;11.400;2023-05-29T13:44:06;2.80;;;1.67;;
14306;SDS011;7237;49.500;11.400;2023-05-29T13:46:33;3.85;;;1.90;;
14306;SDS011;7237;49.500;11.400;2023-05-29T13:49:00;2.53;;;2.20;;
14306;SDS011;7237;49.500;11.400;2023-05-29T13:51:27;2.80;;;1.80;;
14306;SDS011;7237;49.500;11.400;2023-05-29T13:53:54;4.10;;;2.05;;
14306;SDS011;7237;49.500;11.400;2023-05-29T13:56:22;2.70;;;2.00;;
14306;SDS011;7237;49.500;11.400;2023-05-29T13:58:51;2.67;;;2.17;;
14306;SDS011;7237;49.500;11.400;2023-05-29T14:01:18;3.67;;;2.10;;
14306;SDS011;7237;49.500;11.400;2023-05-29T14:03:45;4.80;;;2.20;;
14306;SDS011;7237;49.500;11.400;2023-05-29T14:06:13;3.22;;;2.15;;
14306;SDS011;7237;49.500;11.400;2023-05-29T14:08:40;3.67;;;2.28;;
14306;SDS011;7237;49.500;11.400;2023-05-29T14:11:07;2.05;;;1.77;;
14306;SDS011;7237;49.500;11.400;2023-05-29T14:13:35;3.17;;;2.30;;
14306;SDS011;7237;49.500;11.400;2023-05-29T14:16:02;2.83;;;2.00;;
14306;SDS011;7237;49.500;11.400;2023-05-29T14:18:29;3.03;;;1.70;;
14306;SDS011;7237;49.500;11.400;2023-05-29T14:20:56;3.97;;;2.05;;
14306;SDS011;7237;49.500;11.400;2023-05-29T14:23:23;2.38;;;2.17;;
14306;SDS011;7237;49.500;11.400;2023-05-29T14:25:50;5.03;;;2.13;;
14306;SDS011;7237;49.500;11.400;2023-05-29T14:28:17;2.17;;;1.92;;
14306;SDS011;7237;49.500;11.400;2023-05-29T14:30:46;4.22;;;1.90;;
14306;SDS011;7237;49.500;11.400;2023-05-29T14:33:13;4.35;;;2.60;;
14306;SDS011;7237;49.500;11.400;2023-05-29T14:35:40;2.03;;;1.90;;
14306;SDS011;7237;49.500;11.400;2023-05-29T14:38:07;2.85;;;2.03;;
14306;SDS011;7237;49.500;11.400;2023-05-29T14:40:34;3.42;;;2.08;;
14306;SDS011;7237;49.500;11.400;2023-05-29T14:43:02;2.17;;;1.70;;
14306;SDS011;7237;49.500;11.400;2023-05-29T14:45:29;2.10;;;1.98;;
14306;SDS011;7237;49.500;11.400;2023-05-29T14:47:58;2.67;;;2.08;;
14306;SDS011;7237;49.500;11.400;2023-05-29T14:50:26;2.08;;;1.80;;
14306;SDS011;7237;49.500;11.400;2023-05-29T14:52:53;2.97;;;2.33;;
14306;SDS011;7237;49.500;11.400;2023-05-29T14:55:20;2.83;;;2.22;;
14306;SDS011;7237;49.500;11.400;2023-05-29T14:57:47;4.25;;;1.90;;